createdAt,value
2023-04-18T00:00:06.934Z,80.71
2023-04-18T00:03:15.856Z,80.23
2023-04-18T00:06:19.349Z,80.10
2023-04-18T00:09:21.645Z,80.09
2023-04-18T00:12:23.911Z,79.89
2023-04-18T00:15:26.167Z,79.63
2023-04-18T00:18:28.491Z,79.95
2023-04-18T00:21:31.901Z,80.49
2023-04-18T00:24:34.151Z,80.58
2023-04-18T00:27:37.682Z,80.13
2023-04-18T00:30:40.004Z,80.48
2023-04-18T00:33:42.336Z,80.11
2023-04-18T00:36:44.593Z,79.83
2023-04-18T00:39:46.851Z,80.10
2023-04-18T00:42:49.091Z,79.90
2023-04-18T00:45:51.424Z,80.00
2023-04-18T00:48:53.675Z,80.23
2023-04-18T00:51:56.033Z,79.90
2023-04-18T00:54:58.726Z,79.86
2023-04-18T00:58:00.941Z,79.71
2023-04-18T01:01:03.265Z,79.07
2023-04-18T01:04:06.893Z,79.73
2023-04-18T01:07:09.423Z,79.75
2023-04-18T01:10:11.678Z,79.64
2023-04-18T01:13:14.652Z,79.85
2023-04-18T01:16:16.902Z,79.86
2023-04-18T01:19:19.255Z,79.81
2023-04-18T01:22:21.602Z,79.11
2023-04-18T01:25:23.884Z,79.66
2023-04-18T01:28:27.765Z,78.94
2023-04-18T01:31:34.669Z,78.91
2023-04-18T01:34:36.984Z,79.27
2023-04-18T01:37:41.531Z,79.40
2023-04-18T01:40:43.867Z,79.26
2023-04-18T01:43:46.235Z,79.21
2023-04-18T01:46:48.529Z,79.91
2023-04-18T01:49:50.847Z,79.83
2023-04-18T01:52:53.111Z,79.59
2023-04-18T01:55:55.440Z,79.36
2023-04-18T01:58:57.756Z,79.40
2023-04-18T02:02:00.107Z,79.14
2023-04-18T02:05:02.550Z,79.32
2023-04-18T02:08:05.447Z,79.88
2023-04-18T02:11:07.705Z,79.59
2023-04-18T02:14:10.535Z,79.51
2023-04-18T02:17:12.783Z,79.88
2023-04-18T02:20:15.779Z,79.65
2023-04-18T02:23:18.366Z,79.72
2023-04-18T02:26:20.685Z,79.80
2023-04-18T02:29:23.534Z,79.87
2023-04-18T02:32:26.027Z,80.14
2023-04-18T02:35:28.871Z,80.52
2023-04-18T02:38:31.843Z,80.10
2023-04-18T02:41:37.533Z,80.18
2023-04-18T02:44:39.762Z,79.94
2023-04-18T02:47:53.844Z,79.99
2023-04-18T02:51:03.467Z,80.30
2023-04-18T02:54:06.933Z,80.57
2023-04-18T02:57:24.020Z,80.37
2023-04-18T03:00:37.729Z,80.55
2023-04-18T03:03:45.886Z,80.61
2023-04-18T03:07:09.031Z,80.12
2023-04-18T03:10:14.150Z,80.47
2023-04-18T03:13:17.048Z,80.72
2023-04-18T03:16:19.640Z,80.18
2023-04-18T03:19:21.979Z,80.51
2023-04-18T03:22:25.895Z,79.79
2023-04-18T03:25:31.403Z,79.92
2023-04-18T03:28:34.378Z,79.78
2023-04-18T03:31:36.816Z,80.24
2023-04-18T03:34:39.115Z,80.10
2023-04-18T03:37:43.372Z,79.86
2023-04-18T03:40:46.351Z,80.46
2023-04-18T03:43:56.738Z,80.08
2023-04-18T03:46:58.993Z,80.19
2023-04-18T03:50:02.358Z,79.89
2023-04-18T03:53:05.659Z,79.62
2023-04-18T03:56:11.278Z,79.35
2023-04-18T03:59:26.199Z,79.50
2023-04-18T04:02:28.646Z,79.51
2023-04-18T04:05:30.958Z,80.15
2023-04-18T04:08:33.442Z,79.84
2023-04-18T04:11:36.088Z,79.50
2023-04-18T04:14:39.498Z,79.75
2023-04-18T04:17:41.897Z,79.80
2023-04-18T04:20:45.833Z,80.00
2023-04-18T04:23:53.098Z,79.22
2023-04-18T04:27:05.200Z,79.03
2023-04-18T04:30:13.205Z,79.28
2023-04-18T04:33:16.508Z,77.11
2023-04-18T04:36:19.537Z,74.87
2023-04-18T04:39:24.499Z,74.70
2023-04-18T04:42:56.189Z,76.02
2023-04-18T04:46:05.520Z,76.65
2023-04-18T04:49:08.064Z,77.68
2023-04-18T04:52:10.588Z,77.36
2023-04-18T04:55:12.905Z,77.33
2023-04-18T04:58:16.555Z,77.62
2023-04-18T05:01:34.664Z,77.83
2023-04-18T05:04:37.093Z,78.02
2023-04-18T05:07:39.421Z,78.05
2023-04-18T05:10:43.173Z,77.84
2023-04-18T05:13:45.427Z,77.54
2023-04-18T05:16:47.757Z,78.21
2023-04-18T05:19:50.028Z,78.26
2023-04-18T05:22:52.377Z,78.12
2023-04-18T05:25:54.622Z,78.34
2023-04-18T05:28:56.843Z,78.84
2023-04-18T05:31:59.101Z,78.31
2023-04-18T05:35:01.366Z,78.25
2023-04-18T05:38:03.592Z,78.01
2023-04-18T05:41:07.253Z,77.85
2023-04-18T05:44:09.548Z,77.56
2023-04-18T05:47:11.818Z,78.02
2023-04-18T05:50:14.177Z,78.30
2023-04-18T05:53:16.377Z,77.16
2023-04-18T05:56:18.639Z,77.29
2023-04-18T05:59:20.982Z,76.43
2023-04-18T06:02:23.390Z,77.28
2023-04-18T06:05:26.287Z,77.00
2023-04-18T06:08:28.799Z,76.71
2023-04-18T06:11:35.761Z,76.60
2023-04-18T06:14:38.138Z,77.30
2023-04-18T06:17:40.458Z,76.27
2023-04-18T06:20:44.020Z,76.71
2023-04-18T06:23:47.557Z,77.07
2023-04-18T06:26:49.869Z,76.09
2023-04-18T06:29:52.094Z,75.50
2023-04-18T06:32:54.358Z,76.18
2023-04-18T06:35:56.853Z,75.96
2023-04-18T06:38:59.108Z,75.79
2023-04-18T06:42:02.516Z,75.39
2023-04-18T06:45:06.480Z,75.74
2023-04-18T06:48:10.701Z,76.33
2023-04-18T06:51:13.164Z,75.62
2023-04-18T06:54:15.561Z,75.66
2023-04-18T06:57:17.906Z,74.60
2023-04-18T07:00:20.447Z,76.27
2023-04-18T07:03:22.948Z,74.98
2023-04-18T07:06:26.223Z,74.40
2023-04-18T07:09:28.548Z,74.29
2023-04-18T07:12:30.847Z,75.18
2023-04-18T07:15:34.855Z,73.71
2023-04-18T07:18:38.366Z,73.69
2023-04-18T07:21:42.980Z,73.65
2023-04-18T07:24:45.324Z,74.05
2023-04-18T07:27:47.995Z,74.08
2023-04-18T07:30:50.333Z,73.19
2023-04-18T07:33:52.658Z,73.45
2023-04-18T07:36:54.921Z,73.75
2023-04-18T07:39:57.243Z,73.79
2023-04-18T07:42:59.503Z,73.74
2023-04-18T07:46:01.915Z,74.26
2023-04-18T07:49:04.748Z,73.55
2023-04-18T07:52:07.112Z,73.00
2023-04-18T07:55:09.600Z,73.84
2023-04-18T07:58:11.935Z,73.34
2023-04-18T08:01:15.577Z,73.54
2023-04-18T08:04:18.003Z,73.67
2023-04-18T08:07:20.415Z,74.23
2023-04-18T08:10:23.822Z,72.97
2023-04-18T08:13:26.220Z,73.81
2023-04-18T08:16:28.725Z,73.58
2023-04-18T08:19:30.968Z,72.16
2023-04-18T08:22:33.443Z,70.90
2023-04-18T08:25:36.558Z,70.13
2023-04-18T08:28:38.957Z,69.62
2023-04-18T08:31:41.249Z,69.28
2023-04-18T08:34:43.519Z,70.76
2023-04-18T08:37:45.769Z,69.77
2023-04-18T08:40:48.024Z,69.85
2023-04-18T08:43:50.317Z,67.32
2023-04-18T08:46:53.004Z,66.86
2023-04-18T08:49:55.530Z,70.12
2023-04-18T08:52:59.167Z,66.22
2023-04-18T08:56:01.612Z,66.89
2023-04-18T08:59:04.050Z,68.26
2023-04-18T09:02:08.767Z,66.79
2023-04-18T09:05:16.351Z,68.72
2023-04-18T09:08:24.018Z,67.76
2023-04-18T09:11:28.927Z,67.86
2023-04-18T09:14:32.607Z,69.42
2023-04-18T09:17:53.453Z,68.71
2023-04-18T09:20:56.963Z,67.99
2023-04-18T09:24:34.335Z,69.05
2023-04-18T09:27:36.567Z,69.48
2023-04-18T09:30:40.531Z,67.53
2023-04-18T09:33:52.819Z,68.92
2023-04-18T09:37:11.645Z,68.07
2023-04-18T09:40:20.374Z,67.85
2023-04-18T09:43:22.668Z,66.37
2023-04-18T09:46:25.366Z,67.75
2023-04-18T09:49:27.748Z,67.35
2023-04-18T09:52:35.331Z,65.90
2023-04-18T09:55:37.581Z,66.81
2023-04-18T09:58:41.226Z,67.74
2023-04-18T10:01:48.636Z,68.76
2023-04-18T10:04:51.701Z,67.82
2023-04-18T10:07:54.538Z,68.27
2023-04-18T10:10:58.654Z,67.93
2023-04-18T10:14:06.955Z,66.72
2023-04-18T10:17:10.083Z,66.51
2023-04-18T10:20:17.414Z,67.71
2023-04-18T10:23:32.130Z,67.85
2023-04-18T10:26:47.158Z,68.67
2023-04-18T10:29:53.190Z,68.45
2023-04-18T10:32:55.491Z,68.13
2023-04-18T10:36:07.678Z,67.81
2023-04-18T10:39:22.932Z,68.78
2023-04-18T10:42:46.674Z,67.13
2023-04-18T10:46:20.424Z,67.11
2023-04-18T11:05:23.071Z,67.03
2023-04-18T11:08:25.523Z,67.93
2023-04-18T11:11:27.862Z,67.35
2023-04-18T11:14:40.702Z,66.86
2023-04-18T11:17:43.377Z,68.07
2023-04-18T11:20:50.062Z,69.63
2023-04-18T11:23:52.320Z,70.63
2023-04-18T11:26:55.891Z,71.73
2023-04-18T11:29:58.491Z,71.38
2023-04-18T11:33:05.271Z,72.65
2023-04-18T11:36:08.029Z,73.60
2023-04-18T11:39:10.583Z,72.99
2023-04-18T11:42:12.876Z,73.16
2023-04-18T11:45:15.322Z,74.39
2023-04-18T11:48:17.588Z,74.51
2023-04-18T11:51:35.954Z,73.08
2023-04-18T11:54:44.800Z,73.89
2023-04-18T11:58:06.822Z,73.24
2023-04-18T12:01:19.207Z,74.25
2023-04-18T12:04:21.939Z,74.45
2023-04-18T12:07:37.713Z,75.00
2023-04-18T12:10:53.042Z,74.95
2023-04-18T12:13:56.636Z,74.12
2023-04-18T12:16:58.912Z,73.43
2023-04-18T12:20:02.307Z,74.17
2023-04-18T12:23:04.734Z,74.15
2023-04-18T12:26:07.919Z,74.96
2023-04-18T12:29:10.148Z,75.09
2023-04-18T12:32:12.459Z,75.88
2023-04-18T12:35:15.469Z,75.23
2023-04-18T12:38:19.987Z,76.17
2023-04-18T12:41:22.196Z,76.80
2023-04-18T12:44:24.841Z,77.37
2023-04-18T12:47:27.105Z,75.77
2023-04-18T12:50:29.408Z,76.11
2023-04-18T12:53:31.704Z,76.97
2023-04-18T12:56:33.965Z,75.66
2023-04-18T12:59:36.216Z,75.15
2023-04-18T13:02:42.599Z,75.64
2023-04-18T13:05:44.937Z,75.46
2023-04-18T13:08:47.972Z,75.88
2023-04-18T13:11:50.530Z,75.77
2023-04-18T13:14:52.839Z,75.37
2023-04-18T13:17:56.429Z,75.60
2023-04-18T13:20:58.853Z,75.33
2023-04-18T13:24:01.207Z,73.37
2023-04-18T13:27:10.223Z,74.04
2023-04-18T13:30:12.795Z,73.50
2023-04-18T13:33:15.468Z,71.65
2023-04-18T13:36:18.012Z,70.63
2023-04-18T13:39:20.976Z,73.22
2023-04-18T13:42:23.215Z,72.62
2023-04-18T13:45:25.577Z,69.77
2023-04-18T13:48:27.915Z,71.77
2023-04-18T13:51:31.097Z,72.66
2023-04-18T13:54:33.392Z,71.92
2023-04-18T13:57:37.390Z,72.44
2023-04-18T14:00:39.755Z,73.39
2023-04-18T14:03:43.693Z,73.45
2023-04-18T14:06:47.910Z,70.38
2023-04-18T14:09:53.343Z,71.70
2023-04-18T14:12:56.218Z,73.66
2023-04-18T14:15:58.723Z,72.09
2023-04-18T14:19:01.696Z,71.67
2023-04-18T14:22:03.908Z,69.81
2023-04-18T14:25:06.760Z,68.84
2023-04-18T14:28:11.050Z,70.56
2023-04-18T14:31:14.188Z,71.25
2023-04-18T14:34:16.535Z,69.89
2023-04-18T14:37:18.760Z,70.87
2023-04-18T14:40:22.122Z,72.06
2023-04-18T14:43:24.573Z,71.45
2023-04-18T14:46:28.337Z,70.00
2023-04-18T14:49:30.721Z,69.36
2023-04-18T14:52:32.965Z,71.56
2023-04-18T14:55:35.194Z,71.97
2023-04-18T14:58:37.466Z,70.67
2023-04-18T15:01:41.520Z,70.73
2023-04-18T15:04:44.002Z,70.45
2023-04-18T15:07:47.001Z,72.73
2023-04-18T15:10:49.264Z,72.51
2023-04-18T15:13:51.586Z,72.42
2023-04-18T15:16:53.940Z,72.26
2023-04-18T15:19:56.340Z,73.50
2023-04-18T15:22:58.579Z,71.99
2023-04-18T15:26:01.028Z,74.12
2023-04-18T15:29:03.909Z,73.91
2023-04-18T15:32:06.569Z,74.47
2023-04-18T15:35:11.993Z,73.98
2023-04-18T15:38:14.211Z,74.33
2023-04-18T15:41:16.479Z,73.57
2023-04-18T15:44:18.705Z,74.42
2023-04-18T15:47:21.205Z,74.46
2023-04-18T15:50:23.676Z,74.50
2023-04-18T15:53:25.926Z,74.92
2023-04-18T15:56:28.210Z,74.20
2023-04-18T15:59:30.952Z,74.94
2023-04-18T16:02:33.210Z,73.77
2023-04-18T16:05:35.680Z,74.38
2023-04-18T16:08:37.981Z,74.73
2023-04-18T16:11:40.234Z,74.53
2023-04-18T16:14:42.498Z,74.34
2023-04-18T16:17:44.771Z,74.57
2023-04-18T16:20:47.178Z,75.03
2023-04-18T16:23:49.494Z,76.00
2023-04-18T16:26:53.137Z,74.90
2023-04-18T16:29:55.802Z,75.20
2023-04-18T16:32:58.219Z,74.93
2023-04-18T16:36:02.554Z,74.40
2023-04-18T16:39:04.791Z,75.36
2023-04-18T16:42:07.012Z,74.51
2023-04-18T16:45:09.436Z,74.75
2023-04-18T16:48:11.755Z,74.85
2023-04-18T16:51:13.989Z,75.36
2023-04-18T16:54:16.476Z,74.66
2023-04-18T16:57:18.854Z,75.03
2023-04-18T17:00:21.216Z,75.27
2023-04-18T17:03:23.622Z,74.92
2023-04-18T17:06:27.289Z,75.09
2023-04-18T17:09:30.272Z,75.29
2023-04-18T17:12:32.603Z,75.17
2023-04-18T17:15:36.044Z,74.56
2023-04-18T17:18:38.312Z,74.41
2023-04-18T17:21:40.658Z,74.90
2023-04-18T17:24:42.922Z,74.88
2023-04-18T17:27:45.263Z,74.67
2023-04-18T17:30:47.524Z,75.06
2023-04-18T17:33:50.816Z,74.71
2023-04-18T17:36:53.062Z,74.79
2023-04-18T17:39:57.163Z,75.29
2023-04-18T17:42:59.384Z,75.43
2023-04-18T17:46:03.615Z,75.68
2023-04-18T17:49:06.101Z,76.31
2023-04-18T17:52:08.390Z,74.80
2023-04-18T17:55:10.649Z,75.25
2023-04-18T17:58:12.942Z,75.16
2023-04-18T18:01:18.928Z,74.93
2023-04-18T18:04:24.905Z,75.17
2023-04-18T18:07:28.694Z,75.37
2023-04-18T18:10:31.711Z,75.13
2023-04-18T18:13:34.195Z,76.07
2023-04-18T18:16:38.451Z,76.98
2023-04-18T18:19:40.723Z,77.41
2023-04-18T18:22:43.331Z,77.54
2023-04-18T18:25:45.565Z,76.92
2023-04-18T18:28:47.819Z,77.02
2023-04-18T18:31:50.336Z,75.76
2023-04-18T18:34:52.950Z,76.87
2023-04-18T18:37:55.178Z,76.49
2023-04-18T18:40:57.462Z,76.79
2023-04-18T18:43:59.691Z,77.14
2023-04-18T18:47:02.059Z,77.40
2023-04-18T18:50:04.526Z,76.77
2023-04-18T18:53:06.808Z,77.16
2023-04-18T18:56:09.125Z,77.36
2023-04-18T18:59:11.614Z,77.06
2023-04-18T19:02:13.987Z,77.86
2023-04-18T19:05:17.425Z,77.54
2023-04-18T19:08:19.915Z,77.31
2023-04-18T19:11:22.179Z,77.74
2023-04-18T19:14:24.438Z,77.83
2023-04-18T19:17:26.949Z,78.36
2023-04-18T19:20:29.368Z,77.98
2023-04-18T19:23:31.642Z,78.10
2023-04-18T19:26:33.918Z,78.10
2023-04-18T19:29:36.301Z,78.47
2023-04-18T19:32:38.608Z,78.46
2023-04-18T19:35:41.398Z,78.51
2023-04-18T19:38:43.673Z,78.45
2023-04-18T19:41:46.131Z,78.08
2023-04-18T19:44:48.431Z,77.96
2023-04-18T19:47:50.829Z,77.74
2023-04-18T19:50:53.201Z,77.92
2023-04-18T19:53:55.701Z,77.67
2023-04-18T19:56:58.735Z,77.92
2023-04-18T20:00:01.408Z,78.63
2023-04-18T20:03:03.967Z,77.61
2023-04-18T20:06:06.742Z,77.79
2023-04-18T20:09:15.372Z,77.97
2023-04-18T20:12:17.833Z,77.79
2023-04-18T20:15:20.082Z,77.42
2023-04-18T20:18:24.020Z,77.73
2023-04-18T20:21:26.650Z,77.83
2023-04-18T20:24:31.693Z,78.11
2023-04-18T20:27:33.997Z,78.03
2023-04-18T20:30:36.923Z,77.73
2023-04-18T20:33:39.172Z,78.28
2023-04-18T20:36:41.674Z,78.02
2023-04-18T20:39:44.006Z,76.66
2023-04-18T20:42:46.857Z,76.50
2023-04-18T20:45:51.531Z,76.13
2023-04-18T20:48:53.874Z,76.14
2023-04-18T20:51:56.199Z,75.65
2023-04-18T20:54:58.454Z,75.92
2023-04-18T20:58:00.708Z,75.53
2023-04-18T21:01:03.017Z,75.73
2023-04-18T21:04:05.435Z,75.77
2023-04-18T21:07:07.783Z,76.35
2023-04-18T21:10:10.234Z,75.46
2023-04-18T21:13:12.681Z,76.18
2023-04-18T21:16:15.085Z,75.78
2023-04-18T21:19:17.429Z,75.57
2023-04-18T21:22:19.806Z,75.58
2023-04-18T21:25:22.080Z,75.38
2023-04-18T21:28:24.329Z,74.50
2023-04-18T21:31:27.138Z,74.58
2023-04-18T21:34:29.450Z,73.63
2023-04-18T21:37:31.958Z,72.28
2023-04-18T21:40:34.165Z,71.88
2023-04-18T21:43:36.476Z,70.92
2023-04-18T21:46:38.734Z,71.17
2023-04-18T21:49:41.802Z,70.14
2023-04-18T21:52:44.077Z,71.19
2023-04-18T21:55:46.783Z,71.11
2023-04-18T21:58:49.246Z,70.54
2023-04-18T22:01:51.509Z,70.83
2023-04-18T22:04:53.785Z,70.23
2023-04-18T22:07:58.507Z,70.74
2023-04-18T22:11:01.098Z,70.43
2023-04-18T22:14:03.360Z,69.97
2023-04-18T22:17:05.685Z,69.92
2023-04-18T22:20:08.468Z,70.59
2023-04-18T22:23:11.047Z,70.53
2023-04-18T22:26:13.372Z,70.27
2023-04-18T22:29:15.640Z,70.40
2023-04-18T22:32:18.083Z,69.40
2023-04-18T22:35:20.406Z,69.56
2023-04-18T22:38:22.652Z,69.23
2023-04-18T22:41:24.909Z,69.00
2023-04-18T22:44:27.122Z,68.91
2023-04-18T22:47:29.387Z,67.61
2023-04-18T22:50:31.650Z,67.40
2023-04-18T22:53:33.839Z,68.36
2023-04-18T22:56:36.047Z,69.54
2023-04-18T22:59:38.279Z,69.54
2023-04-18T23:02:40.819Z,68.60
2023-04-18T23:05:43.129Z,68.09
2023-04-18T23:08:45.473Z,68.06
2023-04-18T23:11:47.761Z,67.87
2023-04-18T23:14:49.979Z,67.21
2023-04-18T23:17:53.156Z,67.80
2023-04-18T23:20:55.519Z,67.86
2023-04-18T23:23:57.987Z,67.63
2023-04-18T23:27:01.528Z,67.82
2023-04-18T23:30:04.056Z,67.91
2023-04-18T23:33:06.643Z,67.14
2023-04-18T23:36:09.199Z,66.59
2023-04-18T23:39:11.875Z,66.66
2023-04-18T23:42:14.184Z,66.50
2023-04-18T23:45:16.566Z,65.85
2023-04-18T23:48:18.790Z,66.66
2023-04-18T23:51:21.050Z,65.90
2023-04-18T23:54:23.355Z,65.06
2023-04-18T23:57:25.597Z,64.27
